CAL122 RCTP-ROAH
Flight info
| Callsign | CAL122 |
|---|---|
| Flight time | 1h 13m |
| Altitude | 41000 |
| Route | RCTP/23L N0484F410 KUDO1B KUDOS R595 SEDKU Y573 MJC Y57 VELNO VELNON ROAH/18L |
| Aircraft | A359/H-SDE2E3GHIJ3J4J5LM1ORWXY/LB1D1 |
Departure
| Time | 2026-04-14 10:24 |
|---|---|
| Airport | Taiwan Taoyuan International Airport (RCTP) |
Arrival
| Time | 2026-04-14 11:38 |
|---|---|
| Airport | Naha International Airport (ROAH) |
| Time | Latitude | Longitude | Altitude | Speed | Heading |
|---|---|---|---|---|---|
| 2026-04-14 09:59 | 25.08083 | 121.23272 | 107 ft | 0 kts | 139° |
| 2026-04-14 10:12 | 25.08101 | 121.23255 | 106 ft | 4 kts | 139° |
| 2026-04-14 10:13 | 25.08121 | 121.23235 | 105 ft | 4 kts | 139° |
| 2026-04-14 10:13 | 25.08141 | 121.23217 | 105 ft | 4 kts | 127° |
| 2026-04-14 10:13 | 25.08151 | 121.23198 | 106 ft | 4 kts | 89° |
| 2026-04-14 10:13 | 25.08146 | 121.23177 | 104 ft | 3 kts | 50° |
| 2026-04-14 10:14 | 25.08132 | 121.23159 | 105 ft | 4 kts | 49° |
| 2026-04-14 10:14 | 25.08125 | 121.23149 | 104 ft | 4 kts | 49° |
| 2026-04-14 10:18 | 25.08125 | 121.23150 | 104 ft | 0 kts | 49° |
| 2026-04-14 10:18 | 25.08137 | 121.23166 | 104 ft | 5 kts | 49° |
| 2026-04-14 10:18 | 25.08168 | 121.23205 | 105 ft | 8 kts | 49° |
| 2026-04-14 10:19 | 25.08211 | 121.23261 | 107 ft | 11 kts | 49° |
| 2026-04-14 10:19 | 25.08267 | 121.23332 | 107 ft | 14 kts | 49° |
| 2026-04-14 10:19 | 25.08335 | 121.23419 | 106 ft | 16 kts | 49° |
| 2026-04-14 10:19 | 25.08412 | 121.23516 | 107 ft | 18 kts | 49° |
| 2026-04-14 10:20 | 25.08481 | 121.23605 | 107 ft | 15 kts | 49° |
| 2026-04-14 10:20 | 25.08554 | 121.23698 | 107 ft | 17 kts | 49° |
| 2026-04-14 10:20 | 25.08606 | 121.23765 | 107 ft | 11 kts | 49° |
| 2026-04-14 10:20 | 25.08658 | 121.23837 | 107 ft | 13 kts | 62° |
| 2026-04-14 10:21 | 25.08624 | 121.23919 | 107 ft | 14 kts | 137° |
| 2026-04-14 10:21 | 25.08548 | 121.23994 | 107 ft | 16 kts | 138° |
| 2026-04-14 10:21 | 25.08458 | 121.24079 | 107 ft | 18 kts | 140° |
| 2026-04-14 10:21 | 25.08364 | 121.24167 | 107 ft | 17 kts | 139° |
| 2026-04-14 10:22 | 25.08268 | 121.24258 | 107 ft | 19 kts | 139° |
| 2026-04-14 10:22 | 25.08160 | 121.24359 | 107 ft | 21 kts | 140° |
| 2026-04-14 10:22 | 25.08065 | 121.24449 | 106 ft | 18 kts | 139° |
| 2026-04-14 10:22 | 25.07972 | 121.24537 | 106 ft | 19 kts | 139° |
| 2026-04-14 10:23 | 25.07876 | 121.24607 | 101 ft | 13 kts | 186° |
| 2026-04-14 10:23 | 25.07809 | 121.24541 | 103 ft | 13 kts | 228° |
| 2026-04-14 10:23 | 25.07728 | 121.24439 | 102 ft | 33 kts | 229° |
| 2026-04-14 10:23 | 25.07411 | 121.24036 | 100 ft | 104 kts | 229° |
| 2026-04-14 10:24 | 25.06807 | 121.23273 | 117 ft | 160 kts | 230° |
| 2026-04-14 10:24 | 25.06091 | 121.22366 | 937 ft | 147 kts | 230° |
| 2026-04-14 10:24 | 25.05387 | 121.21478 | 1466 ft | 161 kts | 229° |
| 2026-04-14 10:24 | 25.04609 | 121.20488 | 1764 ft | 177 kts | 230° |
| 2026-04-14 10:25 | 25.03883 | 121.19305 | 2036 ft | 197 kts | 245° |
| 2026-04-14 10:25 | 25.03723 | 121.17774 | 2517 ft | 210 kts | 278° |
| 2026-04-14 10:25 | 25.04419 | 121.16277 | 2851 ft | 236 kts | 310° |
| 2026-04-14 10:25 | 25.05718 | 121.15025 | 3124 ft | 258 kts | 318° |
| 2026-04-14 10:26 | 25.07180 | 121.13779 | 3605 ft | 269 kts | 319° |
| 2026-04-14 10:26 | 25.08666 | 121.12494 | 4258 ft | 272 kts | 318° |
| 2026-04-14 10:26 | 25.10149 | 121.11187 | 4925 ft | 274 kts | 317° |
| 2026-04-14 10:26 | 25.11633 | 121.09862 | 5578 ft | 274 kts | 317° |
| 2026-04-14 10:27 | 25.13097 | 121.08545 | 6202 ft | 276 kts | 317° |
| 2026-04-14 10:27 | 25.14585 | 121.07201 | 6812 ft | 276 kts | 317° |
| 2026-04-14 10:27 | 25.16073 | 121.05855 | 7401 ft | 278 kts | 316° |
| 2026-04-14 10:27 | 25.17612 | 121.04541 | 7976 ft | 282 kts | 323° |
| 2026-04-14 10:28 | 25.19455 | 121.03718 | 8559 ft | 292 kts | 347° |
| 2026-04-14 10:28 | 25.21506 | 121.03855 | 9173 ft | 302 kts | 14° |
| 2026-04-14 10:28 | 25.23334 | 121.05020 | 9758 ft | 311 kts | 42° |
| 2026-04-14 10:28 | 25.24563 | 121.07004 | 10224 ft | 319 kts | 63° |
| 2026-04-14 10:29 | 25.25692 | 121.09171 | 10445 ft | 332 kts | 57° |
| 2026-04-14 10:29 | 25.26493 | 121.11585 | 10619 ft | 347 kts | 81° |
| 2026-04-14 10:29 | 25.26462 | 121.14284 | 10839 ft | 358 kts | 99° |
| 2026-04-14 10:29 | 25.26061 | 121.17043 | 11061 ft | 369 kts | 102° |
| 2026-04-14 10:30 | 25.25610 | 121.19881 | 11253 ft | 380 kts | 102° |
| 2026-04-14 10:30 | 25.25150 | 121.22790 | 11531 ft | 387 kts | 101° |
| 2026-04-14 10:30 | 25.24689 | 121.25738 | 11915 ft | 391 kts | 101° |
| 2026-04-14 10:30 | 25.24225 | 121.28720 | 12294 ft | 395 kts | 101° |
| 2026-04-14 10:31 | 25.23757 | 121.31724 | 12680 ft | 398 kts | 101° |
| 2026-04-14 10:31 | 25.23287 | 121.34751 | 13054 ft | 402 kts | 101° |
| 2026-04-14 10:31 | 25.22811 | 121.37809 | 13429 ft | 405 kts | 101° |
| 2026-04-14 10:31 | 25.22338 | 121.40844 | 13769 ft | 408 kts | 101° |
| 2026-04-14 10:32 | 25.21856 | 121.43937 | 14109 ft | 410 kts | 101° |
| 2026-04-14 10:32 | 25.21426 | 121.46686 | 14413 ft | 412 kts | 101° |
| 2026-04-14 10:32 | 25.20937 | 121.49814 | 14756 ft | 415 kts | 101° |
| 2026-04-14 10:32 | 25.20444 | 121.52962 | 15097 ft | 417 kts | 101° |
| 2026-04-14 10:33 | 25.19949 | 121.56125 | 15472 ft | 419 kts | 101° |
| 2026-04-14 10:33 | 25.19448 | 121.59306 | 15784 ft | 421 kts | 101° |
| 2026-04-14 10:33 | 25.18947 | 121.62499 | 16092 ft | 424 kts | 101° |
| 2026-04-14 10:33 | 25.18443 | 121.65714 | 16440 ft | 425 kts | 101° |
| 2026-04-14 10:34 | 25.17416 | 121.72202 | 17047 ft | 431 kts | 101° |
| 2026-04-14 10:34 | 25.16900 | 121.75463 | 17375 ft | 433 kts | 101° |
| 2026-04-14 10:34 | 25.16379 | 121.78753 | 17700 ft | 435 kts | 101° |
| 2026-04-14 10:35 | 25.15856 | 121.82052 | 18011 ft | 438 kts | 101° |
| 2026-04-14 10:35 | 25.15335 | 121.85335 | 18306 ft | 440 kts | 101° |
| 2026-04-14 10:35 | 25.14803 | 121.88676 | 18583 ft | 442 kts | 101° |
| 2026-04-14 10:35 | 25.14271 | 121.92018 | 18877 ft | 444 kts | 101° |
| 2026-04-14 10:36 | 25.13734 | 121.95379 | 19164 ft | 445 kts | 101° |
| 2026-04-14 10:36 | 25.13195 | 121.98751 | 19444 ft | 447 kts | 101° |
| 2026-04-14 10:36 | 25.12843 | 122.01051 | 19631 ft | 449 kts | 99° |
| 2026-04-14 10:36 | 25.12365 | 122.05592 | 20001 ft | 451 kts | 96° |
| 2026-04-14 10:37 | 25.12191 | 122.07883 | 20188 ft | 452 kts | 95° |
| 2026-04-14 10:37 | 25.11959 | 122.11365 | 20477 ft | 454 kts | 95° |
| 2026-04-14 10:37 | 25.11728 | 122.14840 | 20747 ft | 456 kts | 95° |
| 2026-04-14 10:37 | 25.11479 | 122.18335 | 21014 ft | 458 kts | 95° |
| 2026-04-14 10:38 | 25.11210 | 122.21843 | 21280 ft | 459 kts | 96° |
| 2026-04-14 10:38 | 25.10925 | 122.25355 | 21559 ft | 461 kts | 96° |
| 2026-04-14 10:38 | 25.10630 | 122.28879 | 21826 ft | 462 kts | 96° |
| 2026-04-14 10:38 | 25.10321 | 122.32424 | 22097 ft | 464 kts | 97° |
| 2026-04-14 10:39 | 25.09984 | 122.35966 | 22343 ft | 466 kts | 97° |
| 2026-04-14 10:39 | 25.09633 | 122.39532 | 22607 ft | 467 kts | 97° |
| 2026-04-14 10:39 | 25.09276 | 122.43102 | 22851 ft | 469 kts | 97° |
| 2026-04-14 10:39 | 25.08924 | 122.46637 | 23101 ft | 470 kts | 97° |
| 2026-04-14 10:40 | 25.08565 | 122.50276 | 23353 ft | 472 kts | 97° |
| 2026-04-14 10:40 | 25.08216 | 122.53835 | 23584 ft | 473 kts | 97° |
| 2026-04-14 10:40 | 25.07863 | 122.57454 | 23801 ft | 475 kts | 97° |
| 2026-04-14 10:40 | 25.07510 | 122.61078 | 23995 ft | 476 kts | 97° |
| 2026-04-14 10:41 | 25.07156 | 122.64717 | 24203 ft | 477 kts | 97° |
| 2026-04-14 10:41 | 25.06799 | 122.68369 | 24424 ft | 478 kts | 97° |
| 2026-04-14 10:41 | 25.06442 | 122.72020 | 24634 ft | 480 kts | 97° |
| 2026-04-14 10:41 | 25.06081 | 122.75688 | 24840 ft | 481 kts | 97° |
| 2026-04-14 10:42 | 25.05718 | 122.79369 | 25055 ft | 482 kts | 97° |
| 2026-04-14 10:42 | 25.05355 | 122.83046 | 25246 ft | 483 kts | 97° |
| 2026-04-14 10:42 | 25.04990 | 122.86736 | 25461 ft | 485 kts | 97° |
| 2026-04-14 10:42 | 25.04621 | 122.90442 | 25678 ft | 487 kts | 97° |
| 2026-04-14 10:43 | 25.04252 | 122.94151 | 25871 ft | 488 kts | 97° |
| 2026-04-14 10:43 | 25.03880 | 122.97880 | 26086 ft | 489 kts | 97° |
| 2026-04-14 10:43 | 25.03512 | 123.01564 | 26293 ft | 491 kts | 97° |
| 2026-04-14 10:43 | 25.03141 | 123.05308 | 26503 ft | 492 kts | 97° |
| 2026-04-14 10:44 | 25.02764 | 123.09066 | 26719 ft | 494 kts | 97° |
| 2026-04-14 10:44 | 25.02385 | 123.12833 | 26944 ft | 495 kts | 97° |
| 2026-04-14 10:44 | 25.02003 | 123.16622 | 27169 ft | 497 kts | 97° |
| 2026-04-14 10:44 | 25.01619 | 123.20420 | 27384 ft | 498 kts | 97° |
| 2026-04-14 10:45 | 25.01233 | 123.24224 | 27606 ft | 500 kts | 97° |
| 2026-04-14 10:45 | 25.00845 | 123.28040 | 27841 ft | 501 kts | 97° |
| 2026-04-14 10:45 | 25.00452 | 123.31882 | 28072 ft | 503 kts | 97° |
| 2026-04-14 10:45 | 25.00059 | 123.35717 | 28297 ft | 504 kts | 97° |
| 2026-04-14 10:46 | 24.99669 | 123.39519 | 28522 ft | 506 kts | 97° |
| 2026-04-14 10:46 | 24.99272 | 123.43378 | 28764 ft | 507 kts | 97° |
| 2026-04-14 10:46 | 24.98873 | 123.47251 | 28984 ft | 509 kts | 97° |
| 2026-04-14 10:46 | 24.98472 | 123.51134 | 29217 ft | 511 kts | 97° |
| 2026-04-14 10:47 | 24.98068 | 123.55034 | 29446 ft | 513 kts | 97° |
| 2026-04-14 10:47 | 24.97661 | 123.58945 | 29688 ft | 514 kts | 97° |
| 2026-04-14 10:47 | 24.97253 | 123.62872 | 29925 ft | 516 kts | 97° |
| 2026-04-14 10:47 | 24.96842 | 123.66807 | 30137 ft | 518 kts | 97° |
| 2026-04-14 10:48 | 24.96429 | 123.70766 | 30378 ft | 521 kts | 98° |
| 2026-04-14 10:48 | 24.95593 | 123.78723 | 30663 ft | 527 kts | 98° |
| 2026-04-14 10:48 | 24.95169 | 123.82735 | 30898 ft | 528 kts | 98° |
| 2026-04-14 10:49 | 24.94742 | 123.86768 | 31119 ft | 529 kts | 98° |
| 2026-04-14 10:49 | 24.94313 | 123.90809 | 31345 ft | 531 kts | 98° |
| 2026-04-14 10:49 | 24.93884 | 123.94845 | 31556 ft | 532 kts | 98° |
| 2026-04-14 10:49 | 24.93451 | 123.98905 | 31764 ft | 533 kts | 98° |
| 2026-04-14 10:50 | 24.93016 | 124.02965 | 31964 ft | 534 kts | 98° |
| 2026-04-14 10:50 | 24.92554 | 124.07031 | 32167 ft | 535 kts | 99° |
| 2026-04-14 10:50 | 24.92074 | 124.11099 | 32361 ft | 536 kts | 99° |
| 2026-04-14 10:50 | 24.91585 | 124.15178 | 32551 ft | 538 kts | 99° |
| 2026-04-14 10:51 | 24.91095 | 124.19263 | 32730 ft | 539 kts | 99° |
| 2026-04-14 10:51 | 24.90606 | 124.23361 | 32919 ft | 540 kts | 99° |
| 2026-04-14 10:51 | 24.90118 | 124.27472 | 33100 ft | 541 kts | 99° |
| 2026-04-14 10:51 | 24.89637 | 124.31533 | 33304 ft | 542 kts | 99° |
| 2026-04-14 10:52 | 24.89150 | 124.35641 | 33579 ft | 541 kts | 99° |
| 2026-04-14 10:52 | 24.88664 | 124.39740 | 33873 ft | 540 kts | 99° |
| 2026-04-14 10:52 | 24.88178 | 124.43837 | 34116 ft | 539 kts | 99° |
| 2026-04-14 10:52 | 24.87689 | 124.47937 | 34346 ft | 539 kts | 99° |
| 2026-04-14 10:53 | 24.87201 | 124.52023 | 34589 ft | 538 kts | 99° |
| 2026-04-14 10:53 | 24.86710 | 124.56121 | 34836 ft | 538 kts | 99° |
| 2026-04-14 10:53 | 24.86219 | 124.60206 | 35084 ft | 538 kts | 99° |
| 2026-04-14 10:53 | 24.85727 | 124.64289 | 35346 ft | 537 kts | 99° |
| 2026-04-14 10:54 | 24.85236 | 124.68365 | 35621 ft | 537 kts | 99° |
| 2026-04-14 10:54 | 24.84743 | 124.72440 | 35889 ft | 536 kts | 99° |
| 2026-04-14 10:54 | 24.84249 | 124.76508 | 36151 ft | 536 kts | 99° |
| 2026-04-14 10:54 | 24.83756 | 124.80567 | 36420 ft | 536 kts | 100° |
| 2026-04-14 10:55 | 24.83267 | 124.84582 | 36681 ft | 535 kts | 100° |
| 2026-04-14 10:55 | 24.82772 | 124.88651 | 36948 ft | 535 kts | 100° |
| 2026-04-14 10:55 | 24.82280 | 124.92706 | 37218 ft | 534 kts | 100° |
| 2026-04-14 10:55 | 24.81782 | 124.96764 | 37486 ft | 534 kts | 100° |
| 2026-04-14 10:56 | 24.81284 | 125.00807 | 37748 ft | 533 kts | 100° |
| 2026-04-14 10:56 | 24.80784 | 125.04849 | 38016 ft | 533 kts | 100° |
| 2026-04-14 10:56 | 24.80284 | 125.08889 | 38287 ft | 532 kts | 100° |
| 2026-04-14 10:56 | 24.79784 | 125.12925 | 38554 ft | 532 kts | 101° |
| 2026-04-14 10:57 | 24.79282 | 125.16968 | 38781 ft | 531 kts | 101° |
| 2026-04-14 10:57 | 24.78782 | 125.20995 | 39005 ft | 530 kts | 100° |
| 2026-04-14 10:57 | 24.78477 | 125.25054 | 39200 ft | 533 kts | 91° |
| 2026-04-14 10:57 | 24.78837 | 125.29072 | 39405 ft | 535 kts | 78° |
| 2026-04-14 10:58 | 24.79990 | 125.32970 | 39599 ft | 535 kts | 64° |
| 2026-04-14 10:58 | 24.81736 | 125.36583 | 39800 ft | 534 kts | 59° |
| 2026-04-14 10:58 | 24.83650 | 125.40089 | 40016 ft | 533 kts | 57° |
| 2026-04-14 10:58 | 24.85627 | 125.43534 | 40214 ft | 532 kts | 56° |
| 2026-04-14 10:59 | 24.87601 | 125.46919 | 40430 ft | 531 kts | 56° |
| 2026-04-14 10:59 | 24.89591 | 125.50337 | 40647 ft | 530 kts | 57° |
| 2026-04-14 10:59 | 24.91565 | 125.53761 | 40838 ft | 529 kts | 57° |
| 2026-04-14 11:00 | 24.95482 | 125.60639 | 40936 ft | 529 kts | 57° |
| 2026-04-14 11:00 | 24.99373 | 125.67536 | 40947 ft | 529 kts | 57° |
| 2026-04-14 11:01 | 25.03238 | 125.74407 | 40951 ft | 530 kts | 57° |
| 2026-04-14 11:01 | 25.07144 | 125.81355 | 40942 ft | 529 kts | 57° |
| 2026-04-14 11:02 | 25.10999 | 125.88221 | 40950 ft | 530 kts | 57° |
| 2026-04-14 11:02 | 25.14887 | 125.95153 | 40947 ft | 530 kts | 57° |
| 2026-04-14 11:03 | 25.18766 | 126.02081 | 40944 ft | 530 kts | 57° |
| 2026-04-14 11:03 | 25.22618 | 126.08970 | 40943 ft | 530 kts | 57° |
| 2026-04-14 11:04 | 25.26491 | 126.15906 | 40946 ft | 531 kts | 57° |
| 2026-04-14 11:04 | 25.30362 | 126.22850 | 40947 ft | 531 kts | 57° |
| 2026-04-14 11:05 | 25.34238 | 126.29812 | 40952 ft | 531 kts | 57° |
| 2026-04-14 11:05 | 25.38110 | 126.36778 | 40952 ft | 531 kts | 57° |
| 2026-04-14 11:06 | 25.41982 | 126.43755 | 40950 ft | 531 kts | 57° |
| 2026-04-14 11:06 | 25.45848 | 126.50731 | 40951 ft | 532 kts | 57° |
| 2026-04-14 11:07 | 25.49713 | 126.57716 | 40952 ft | 532 kts | 57° |
| 2026-04-14 11:07 | 25.53539 | 126.64678 | 40953 ft | 532 kts | 57° |
| 2026-04-14 11:08 | 25.57381 | 126.71691 | 40954 ft | 533 kts | 57° |
| 2026-04-14 11:08 | 25.61226 | 126.78715 | 40956 ft | 533 kts | 57° |
| 2026-04-14 11:09 | 25.65069 | 126.85739 | 40944 ft | 533 kts | 57° |
| 2026-04-14 11:09 | 25.68918 | 126.92786 | 40952 ft | 533 kts | 57° |
| 2026-04-14 11:10 | 25.74643 | 127.03290 | 40687 ft | 529 kts | 57° |
| 2026-04-14 11:10 | 25.76555 | 127.06801 | 39928 ft | 533 kts | 57° |
| 2026-04-14 11:10 | 25.78479 | 127.10336 | 39112 ft | 538 kts | 57° |
| 2026-04-14 11:11 | 25.80422 | 127.13911 | 38338 ft | 542 kts | 57° |
| 2026-04-14 11:11 | 25.82367 | 127.17491 | 37731 ft | 540 kts | 57° |
| 2026-04-14 11:11 | 25.84304 | 127.21062 | 37200 ft | 537 kts | 57° |
| 2026-04-14 11:11 | 25.86220 | 127.24595 | 36731 ft | 533 kts | 57° |
| 2026-04-14 11:12 | 25.88121 | 127.28115 | 36266 ft | 529 kts | 58° |
| 2026-04-14 11:12 | 25.90110 | 127.31520 | 35752 ft | 522 kts | 47° |
| 2026-04-14 11:12 | 25.92720 | 127.34246 | 35327 ft | 511 kts | 32° |
| 2026-04-14 11:12 | 25.95790 | 127.36119 | 34876 ft | 498 kts | 16° |
| 2026-04-14 11:13 | 25.99071 | 127.37191 | 34453 ft | 489 kts | 9° |
| 2026-04-14 11:13 | 26.02303 | 127.38203 | 34030 ft | 488 kts | 13° |
| 2026-04-14 11:13 | 26.05501 | 127.39426 | 33548 ft | 486 kts | 16° |
| 2026-04-14 11:13 | 26.08644 | 127.40794 | 33091 ft | 483 kts | 18° |
| 2026-04-14 11:14 | 26.11744 | 127.42239 | 32640 ft | 480 kts | 19° |
| 2026-04-14 11:14 | 26.14797 | 127.43716 | 32188 ft | 477 kts | 19° |
| 2026-04-14 11:14 | 26.17805 | 127.45203 | 31638 ft | 466 kts | 19° |
| 2026-04-14 11:14 | 26.20742 | 127.46672 | 30680 ft | 460 kts | 19° |
| 2026-04-14 11:15 | 26.23625 | 127.48123 | 30063 ft | 446 kts | 19° |
| 2026-04-14 11:15 | 26.26394 | 127.49527 | 29610 ft | 427 kts | 19° |
| 2026-04-14 11:15 | 26.29011 | 127.50854 | 29138 ft | 411 kts | 19° |
| 2026-04-14 11:15 | 26.31584 | 127.52159 | 28502 ft | 400 kts | 19° |
| 2026-04-14 11:16 | 26.34108 | 127.53388 | 27796 ft | 390 kts | 14° |
| 2026-04-14 11:16 | 26.36671 | 127.54139 | 27043 ft | 373 kts | 0° |
| 2026-04-14 11:16 | 26.39198 | 127.54123 | 26337 ft | 355 kts | 343° |
| 2026-04-14 11:16 | 26.41500 | 127.53321 | 25625 ft | 337 kts | 326° |
| 2026-04-14 11:17 | 26.43357 | 127.51849 | 24942 ft | 322 kts | 309° |
| 2026-04-14 11:17 | 26.44632 | 127.49869 | 24265 ft | 310 kts | 292° |
| 2026-04-14 11:17 | 26.45231 | 127.47600 | 23639 ft | 306 kts | 275° |
| 2026-04-14 11:17 | 26.45178 | 127.45259 | 23284 ft | 305 kts | 263° |
| 2026-04-14 11:18 | 26.44589 | 127.42994 | 22938 ft | 305 kts | 248° |
| 2026-04-14 11:18 | 26.43409 | 127.41017 | 22574 ft | 310 kts | 232° |
| 2026-04-14 11:18 | 26.41729 | 127.39476 | 22215 ft | 317 kts | 217° |
| 2026-04-14 11:18 | 26.39677 | 127.38488 | 21852 ft | 325 kts | 203° |
| 2026-04-14 11:19 | 26.37491 | 127.37836 | 21493 ft | 325 kts | 201° |
| 2026-04-14 11:19 | 26.35297 | 127.37230 | 21151 ft | 323 kts | 201° |
| 2026-04-14 11:19 | 26.33119 | 127.36622 | 20812 ft | 322 kts | 200° |
| 2026-04-14 11:19 | 26.30860 | 127.36343 | 20433 ft | 331 kts | 185° |
| 2026-04-14 11:20 | 26.28586 | 127.36801 | 20093 ft | 342 kts | 167° |
| 2026-04-14 11:20 | 26.26482 | 127.38099 | 19746 ft | 352 kts | 146° |
| 2026-04-14 11:20 | 26.24854 | 127.40170 | 19402 ft | 360 kts | 123° |
| 2026-04-14 11:20 | 26.23970 | 127.42782 | 19056 ft | 363 kts | 100° |
| 2026-04-14 11:21 | 26.24008 | 127.45574 | 18709 ft | 361 kts | 75° |
| 2026-04-14 11:21 | 26.24990 | 127.48096 | 18368 ft | 352 kts | 50° |
| 2026-04-14 11:21 | 26.26701 | 127.49905 | 17986 ft | 337 kts | 25° |
| 2026-04-14 11:21 | 26.28783 | 127.51024 | 17638 ft | 329 kts | 15° |
| 2026-04-14 11:22 | 26.30897 | 127.51983 | 17291 ft | 327 kts | 15° |
| 2026-04-14 11:22 | 26.32997 | 127.52940 | 16987 ft | 324 kts | 16° |
| 2026-04-14 11:22 | 26.35093 | 127.53681 | 16847 ft | 309 kts | 1° |
| 2026-04-14 11:22 | 26.37165 | 127.53583 | 16724 ft | 291 kts | 338° |
| 2026-04-14 11:23 | 26.38923 | 127.52609 | 16618 ft | 277 kts | 315° |
| 2026-04-14 11:23 | 26.40152 | 127.51017 | 16503 ft | 269 kts | 295° |
| 2026-04-14 11:23 | 26.40754 | 127.49072 | 16362 ft | 265 kts | 277° |
| 2026-04-14 11:23 | 26.40685 | 127.47057 | 16245 ft | 265 kts | 258° |
| 2026-04-14 11:24 | 26.39943 | 127.45167 | 16118 ft | 270 kts | 239° |
| 2026-04-14 11:24 | 26.38585 | 127.43690 | 15999 ft | 279 kts | 218° |
| 2026-04-14 11:24 | 26.36822 | 127.42723 | 15884 ft | 285 kts | 208° |
| 2026-04-14 11:24 | 26.34971 | 127.41905 | 15759 ft | 286 kts | 208° |
| 2026-04-14 11:25 | 26.33126 | 127.41084 | 15640 ft | 285 kts | 208° |
| 2026-04-14 11:25 | 26.31907 | 127.40538 | 15560 ft | 285 kts | 208° |
| 2026-04-14 11:25 | 26.29973 | 127.39966 | 15435 ft | 294 kts | 192° |
| 2026-04-14 11:25 | 26.27245 | 127.40545 | 15266 ft | 311 kts | 157° |
| 2026-04-14 11:26 | 26.25591 | 127.42128 | 15155 ft | 321 kts | 129° |
| 2026-04-14 11:26 | 26.24896 | 127.43592 | 15076 ft | 326 kts | 110° |
| 2026-04-14 11:26 | 26.24661 | 127.46087 | 14953 ft | 326 kts | 81° |
| 2026-04-14 11:26 | 26.25875 | 127.49045 | 14772 ft | 316 kts | 43° |
| 2026-04-14 11:27 | 26.27609 | 127.50436 | 14552 ft | 303 kts | 19° |
| 2026-04-14 11:27 | 26.29537 | 127.51362 | 14314 ft | 301 kts | 16° |
| 2026-04-14 11:27 | 26.30815 | 127.51939 | 14022 ft | 298 kts | 16° |
| 2026-04-14 11:27 | 26.32730 | 127.52810 | 13445 ft | 297 kts | 17° |
| 2026-04-14 11:28 | 26.34660 | 127.53569 | 12784 ft | 290 kts | 7° |
| 2026-04-14 11:28 | 26.36623 | 127.53600 | 12035 ft | 277 kts | 342° |
| 2026-04-14 11:28 | 26.38779 | 127.52295 | 11093 ft | 264 kts | 310° |
| 2026-04-14 11:28 | 26.39508 | 127.51197 | 10606 ft | 259 kts | 295° |
| 2026-04-14 11:29 | 26.40002 | 127.49315 | 9925 ft | 256 kts | 273° |
| 2026-04-14 11:29 | 26.39760 | 127.47340 | 9169 ft | 256 kts | 251° |
| 2026-04-14 11:29 | 26.38796 | 127.45673 | 8428 ft | 260 kts | 227° |
| 2026-04-14 11:29 | 26.37297 | 127.44586 | 7723 ft | 264 kts | 206° |
| 2026-04-14 11:30 | 26.35570 | 127.43868 | 7004 ft | 264 kts | 202° |
| 2026-04-14 11:30 | 26.33839 | 127.43190 | 6295 ft | 262 kts | 202° |
| 2026-04-14 11:30 | 26.32127 | 127.42503 | 5576 ft | 260 kts | 202° |
| 2026-04-14 11:30 | 26.30407 | 127.41935 | 4965 ft | 257 kts | 192° |
| 2026-04-14 11:31 | 26.28634 | 127.42034 | 4353 ft | 258 kts | 166° |
| 2026-04-14 11:31 | 26.27049 | 127.42947 | 3730 ft | 258 kts | 143° |
| 2026-04-14 11:31 | 26.25901 | 127.44472 | 3126 ft | 258 kts | 120° |
| 2026-04-14 11:31 | 26.25434 | 127.46011 | 2635 ft | 257 kts | 98° |
| 2026-04-14 11:32 | 26.25592 | 127.47947 | 2287 ft | 257 kts | 70° |
| 2026-04-14 11:32 | 26.26436 | 127.49642 | 2199 ft | 250 kts | 47° |
| 2026-04-14 11:32 | 26.27782 | 127.50774 | 2073 ft | 236 kts | 24° |
| 2026-04-14 11:32 | 26.29241 | 127.51518 | 2005 ft | 227 kts | 20° |
| 2026-04-14 11:33 | 26.30677 | 127.52266 | 2001 ft | 235 kts | 28° |
| 2026-04-14 11:33 | 26.31891 | 127.53528 | 1961 ft | 239 kts | 58° |
| 2026-04-14 11:33 | 26.32506 | 127.55183 | 1843 ft | 232 kts | 72° |
| 2026-04-14 11:34 | 26.33360 | 127.58651 | 1603 ft | 232 kts | 75° |
| 2026-04-14 11:34 | 26.33449 | 127.60432 | 1462 ft | 231 kts | 106° |
| 2026-04-14 11:34 | 26.32615 | 127.61878 | 1423 ft | 222 kts | 146° |
| 2026-04-14 11:34 | 26.31515 | 127.62551 | 1414 ft | 214 kts | 163° |
| 2026-04-14 11:35 | 26.30119 | 127.62728 | 1374 ft | 196 kts | 188° |
| 2026-04-14 11:35 | 26.28782 | 127.62651 | 1407 ft | 188 kts | 185° |
| 2026-04-14 11:35 | 26.27537 | 127.62731 | 1403 ft | 172 kts | 174° |
| 2026-04-14 11:35 | 26.26394 | 127.63025 | 1143 ft | 167 kts | 174° |
| 2026-04-14 11:36 | 26.25299 | 127.63012 | 945 ft | 153 kts | 185° |
| 2026-04-14 11:36 | 26.24255 | 127.63104 | 744 ft | 145 kts | 180° |
| 2026-04-14 11:36 | 26.23293 | 127.63119 | 556 ft | 135 kts | 184° |
| 2026-04-14 11:36 | 26.22375 | 127.63153 | 420 ft | 130 kts | 176° |
| 2026-04-14 11:37 | 26.21460 | 127.63181 | 250 ft | 131 kts | 181° |
| 2026-04-14 11:37 | 26.20546 | 127.63236 | 121 ft | 132 kts | 181° |
| 2026-04-14 11:37 | 26.19635 | 127.63280 | 41 ft | 125 kts | 181° |
| 2026-04-14 11:37 | 26.18876 | 127.63310 | 33 ft | 79 kts | 178° |
| 2026-04-14 11:38 | 26.18558 | 127.63346 | 35 ft | 30 kts | 165° |
| 2026-04-14 11:38 | 26.18441 | 127.63402 | 36 ft | 17 kts | 149° |
| 2026-04-14 11:38 | 26.18367 | 127.63483 | 35 ft | 13 kts | 97° |
| 2026-04-14 11:38 | 26.18400 | 127.63519 | 35 ft | 7 kts | 13° |
| 2026-04-14 11:39 | 26.18459 | 127.63520 | 35 ft | 11 kts | 358° |
| 2026-04-14 11:39 | 26.18549 | 127.63517 | 35 ft | 14 kts | 358° |
| 2026-04-14 11:39 | 26.18660 | 127.63512 | 35 ft | 17 kts | 357° |
| 2026-04-14 11:39 | 26.18789 | 127.63505 | 35 ft | 20 kts | 357° |
| 2026-04-14 11:40 | 26.18939 | 127.63497 | 35 ft | 23 kts | 357° |
| 2026-04-14 11:40 | 26.20435 | 127.65008 | 35 ft | 0 kts | 28° |